Time;durP1;ratioP1;P1;durP2;ratioP2;P2;SDS_P1;SDS_P2;PMS_P1;PMS_P2;Temp;Humidity;BMP_temperature;BMP_pressure;BME280_temperature;BME280_humidity;BME280_pressure;Samples;Min_cycle;Max_cycle;Signal;HPM_P1;HPM_P2
2021/10/13 00:04:03;;;;;;;13.77;11.40;;;;;;;7.16;100.00;100034.06;20921056;28;20235;-63
2021/10/13 00:14:06;;;;;;;10.90;9.73;;;;;;;7.25;100.00;100052.13;20940433;28;20243;-62
2021/10/13 00:24:10;;;;;;;13.90;12.50;;;;;;;7.29;100.00;100042.22;20948568;28;20629;-65
2021/10/13 00:34:12;;;;;;;16.63;14.90;;;;;;;7.24;100.00;100042.47;20972268;28;20262;-58
2021/10/13 00:44:15;;;;;;;16.77;15.07;;;;;;;7.14;100.00;100057.16;20949421;28;20227;-65
2021/10/13 00:54:17;;;;;;;21.30;18.23;;;;;;;7.08;100.00;100066.31;20927261;28;20229;-62
2021/10/13 01:04:31;;;;;;;23.27;20.67;;;;;;;6.88;100.00;100060.38;20874270;28;20242;-68
2021/10/13 01:14:41;;;;;;;22.20;19.57;;;;;;;6.66;100.00;100071.25;20902387;28;20223;-63
2021/10/13 01:24:56;;;;;;;20.27;17.93;;;;;;;6.53;100.00;100071.00;20939984;28;20923;-67
2021/10/13 01:35:01;;;;;;;23.33;20.83;;;;;;;6.46;100.00;100083.75;20942073;28;20226;-58
2021/10/13 01:45:04;;;;;;;23.10;18.77;;;;;;;6.28;100.00;100076.72;20915947;28;20705;-61
2021/10/13 01:55:09;;;;;;;22.37;16.97;;;;;;;6.22;100.00;100086.78;20902301;28;20238;-63
2021/10/13 02:05:17;;;;;;;25.13;17.77;;;;;;;6.02;100.00;100096.59;20930461;28;20727;-60
2021/10/13 02:35:13;;;;;;;18.83;16.83;;;;;;;6.13;100.00;100130.50;21029903;27;20716;-66
2021/10/13 02:45:15;;;;;;;16.73;15.00;;;;;;;6.25;100.00;100134.31;21017107;27;20222;-61
2021/10/13 02:55:20;;;;;;;17.90;15.60;;;;;;;6.38;100.00;100132.78;21023175;27;20233;-60
2021/10/13 03:05:24;;;;;;;19.33;17.33;;;;;;;6.43;100.00;100138.69;21007793;27;20703;-62
2021/10/13 03:25:27;;;;;;;15.03;13.53;;;;;;;6.46;100.00;100159.75;21099741;27;20645;-62
2021/10/13 03:35:31;;;;;;;14.97;13.53;;;;;;;6.62;100.00;100147.44;21072886;27;20225;-66
2021/10/13 03:45:35;;;;;;;14.73;13.33;;;;;;;6.79;100.00;100162.47;21037916;27;20254;-68
2021/10/13 03:55:37;;;;;;;17.23;15.50;;;;;;;6.86;100.00;100167.41;21108709;27;20243;-63
2021/10/13 04:05:41;;;;;;;17.73;15.90;;;;;;;6.92;100.00;100175.97;21177348;27;20233;-65
2021/10/13 04:25:41;;;;;;;19.43;16.50;;;;;;;7.05;100.00;100182.34;20832314;27;20592;-64
2021/10/13 04:35:43;;;;;;;26.77;20.97;;;;;;;7.06;100.00;100194.69;20699590;28;20221;-67
2021/10/13 04:55:43;;;;;;;31.00;21.47;;;;;;;7.03;100.00;100202.81;20960412;27;20646;-66
2021/10/13 05:05:45;;;;;;;31.77;23.80;;;;;;;7.03;100.00;100221.38;20966477;28;20267;-62
2021/10/13 05:15:49;;;;;;;28.87;21.97;;;;;;;7.07;100.00;100238.88;20996155;28;20225;-65
2021/10/13 05:25:52;;;;;;;30.43;22.83;;;;;;;7.15;100.00;100245.47;20981779;28;20216;-60
2021/10/13 05:35:57;;;;;;;28.10;21.87;;;;;;;7.31;100.00;100258.84;21021915;28;20233;-60
2021/10/13 05:45:59;;;;;;;28.03;22.47;;;;;;;7.41;100.00;100278.66;21051754;28;20259;-62
2021/10/13 05:56:03;;;;;;;27.77;22.23;;;;;;;7.47;100.00;100293.41;21053731;28;20256;-61
2021/10/13 06:06:06;;;;;;;26.67;21.97;;;;;;;7.54;100.00;100316.91;21003593;28;20217;-61
2021/10/13 06:16:10;;;;;;;25.87;20.47;;;;;;;7.54;100.00;100337.28;20996913;28;20698;-60
2021/10/13 06:26:12;;;;;;;18.87;16.90;;;;;;;7.73;100.00;100353.97;20995914;28;20225;-59
2021/10/13 06:36:16;;;;;;;17.20;15.40;;;;;;;7.85;100.00;100357.78;20996577;28;20234;-62
2021/10/13 06:46:18;;;;;;;18.60;16.60;;;;;;;7.97;100.00;100362.44;20995476;28;20237;-60
2021/10/13 06:56:22;;;;;;;18.10;16.23;;;;;;;8.10;100.00;100384.78;20994720;28;20762;-60
2021/10/13 07:06:24;;;;;;;17.17;15.47;;;;;;;7.94;100.00;100402.50;20993896;28;20686;-59
2021/10/13 07:16:27;;;;;;;15.77;14.37;;;;;;;7.73;100.00;100400.97;20992121;28;20289;-60
2021/10/13 07:26:33;;;;;;;13.83;12.53;;;;;;;8.06;100.00;100404.50;20992300;28;20226;-60
2021/10/13 07:36:37;;;;;;;13.90;12.70;;;;;;;8.70;100.00;100422.34;20991428;28;20222;-61
2021/10/13 07:46:40;;;;;;;10.93;10.03;;;;;;;10.71;100.00;100416.63;20990643;28;20241;-61
2021/10/13 07:56:43;;;;;;;8.63;7.93;;;;;;;11.19;100.00;100425.13;20989914;28;20241;-60
2021/10/13 08:06:46;;;;;;;10.17;9.27;;;;;;;11.35;100.00;100422.31;20989232;28;20626;-61
2021/10/13 08:16:49;;;;;;;10.67;9.83;;;;;;;11.18;100.00;100432.28;20988244;28;20229;-58
2021/10/13 08:26:51;;;;;;;11.27;10.27;;;;;;;11.03;100.00;100441.25;20987677;28;20242;-58
2021/10/13 08:36:55;;;;;;;10.10;9.20;;;;;;;10.85;100.00;100445.13;20987754;28;20281;-60
2021/10/13 08:46:57;;;;;;;9.20;8.40;;;;;;;10.17;100.00;100452.88;20987012;28;20265;-58
2021/10/13 08:57:01;;;;;;;9.90;8.93;;;;;;;9.52;100.00;100457.63;20986650;28;20231;-58
2021/10/13 09:07:04;;;;;;;7.10;6.50;;;;;;;9.42;100.00;100461.75;20986107;28;20595;-58
2021/10/13 09:17:09;;;;;;;5.47;4.97;;;;;;;9.59;100.00;100455.47;20985829;28;20344;-58
2021/10/13 09:27:19;;;;;;;5.93;5.43;;;;;;;10.05;100.00;100464.25;20985405;28;20223;-60
2021/10/13 09:37:23;;;;;;;8.17;7.47;;;;;;;10.85;100.00;100477.16;20992640;28;20223;-60
2021/10/13 09:47:30;;;;;;;6.93;6.43;;;;;;;11.34;100.00;100490.06;20999844;28;20229;-59
2021/10/13 09:57:42;;;;;;;6.97;6.37;;;;;;;11.12;100.00;100480.72;20999402;28;20567;-60
2021/10/13 10:07:47;;;;;;;8.50;7.80;;;;;;;12.13;100.00;100490.13;20998838;28;20790;-59
2021/10/13 10:17:50;;;;;;;6.17;5.70;;;;;;;13.14;100.00;100495.53;20998000;28;20226;-59
2021/10/13 10:27:53;;;;;;;10.50;9.17;;;;;;;12.32;100.00;100493.25;20997294;28;20229;-60
2021/10/13 10:37:57;;;;;;;5.17;4.67;;;;;;;11.66;100.00;100502.16;20995193;28;20225;-63
2021/10/13 10:48:08;;;;;;;3.37;3.07;;;;;;;11.80;100.00;100504.81;20995219;28;20273;-59
2021/10/13 10:58:18;;;;;;;2.30;2.10;;;;;;;11.86;100.00;100509.75;20994648;28;20276;-61
2021/10/13 11:08:22;;;;;;;2.50;1.93;;;;;;;11.46;100.00;100518.66;20993719;28;20236;-59
2021/10/13 11:18:32;;;;;;;2.13;2.00;;;;;;;11.83;100.00;100531.34;20992896;28;20618;-59
2021/10/13 11:28:34;;;;;;;1.57;1.30;;;;;;;11.82;100.00;100516.28;20992231;28;20227;-59
2021/10/13 11:38:40;;;;;;;2.20;1.67;;;;;;;11.63;95.49;100529.09;20991362;28;20225;-60
2021/10/13 11:48:42;;;;;;;2.00;1.90;;;;;;;11.65;100.00;100534.34;20990425;28;20225;-60
2021/10/13 11:58:46;;;;;;;2.90;1.87;;;;;;;12.15;100.00;100531.03;20989271;28;20254;-59
2021/10/13 12:08:50;;;;;;;1.60;1.50;;;;;;;11.97;95.23;100545.59;20989230;28;20405;-60
2021/10/13 12:18:58;;;;;;;3.07;2.13;;;;;;;11.08;100.00;100539.78;20988492;28;20285;-59
2021/10/13 12:29:07;;;;;;;3.90;2.43;;;;;;;10.52;100.00;100560.13;20988226;28;20268;-59
2021/10/13 12:39:14;;;;;;;3.17;2.97;;;;;;;9.40;100.00;100572.88;20987996;28;20223;-59
2021/10/13 12:49:18;;;;;;;4.37;3.97;;;;;;;9.11;100.00;100565.59;20987018;28;20238;-59
2021/10/13 12:59:22;;;;;;;4.10;3.80;;;;;;;9.03;100.00;100576.69;20986841;28;20226;-59
2021/10/13 13:09:24;;;;;;;5.73;4.33;;;;;;;9.31;100.00;100574.22;20989844;28;20305;-59
2021/10/13 13:19:28;;;;;;;5.70;4.30;;;;;;;9.61;100.00;100582.31;21003293;28;20584;-59
2021/10/13 13:39:28;;;;;;;3.73;3.43;;;;;;;10.35;100.00;100589.66;21069871;27;20575;-61
2021/10/13 13:49:30;;;;;;;2.90;2.70;;;;;;;10.41;100.00;100594.59;21037014;27;20218;-60
2021/10/13 13:59:34;;;;;;;3.10;2.63;;;;;;;10.20;100.00;100596.72;21016233;27;20681;-60
2021/10/13 14:09:37;;;;;;;2.80;2.60;;;;;;;10.31;100.00;100599.63;21033426;27;20246;-60
2021/10/13 14:19:40;;;;;;;2.60;2.40;;;;;;;10.34;100.00;100599.47;20982561;27;20230;-61
2021/10/13 14:29:43;;;;;;;3.23;3.03;;;;;;;10.05;100.00;100618.91;21055764;27;20218;-62
2021/10/13 14:39:51;;;;;;;2.60;2.40;;;;;;;9.72;100.00;100632.34;20961536;27;20234;-62
2021/10/13 14:49:53;;;;;;;3.73;2.70;;;;;;;9.66;100.00;100633.53;20983435;27;20255;-60
2021/10/13 14:59:57;;;;;;;4.07;3.77;;;;;;;9.33;100.00;100640.72;20936202;28;20821;-60
2021/10/13 15:10:00;;;;;;;2.90;2.70;;;;;;;9.34;100.00;100655.75;20946505;28;20568;-59
2021/10/13 15:20:05;;;;;;;3.23;3.00;;;;;;;9.60;100.00;100673.00;21015022;28;20254;-64
2021/10/13 15:30:08;;;;;;;3.03;2.83;;;;;;;9.47;100.00;100670.13;21048467;27;20230;-59
2021/10/13 15:40:13;;;;;;;3.60;2.90;;;;;;;9.11;100.00;100677.41;21071754;28;20898;-59
2021/10/13 15:50:15;;;;;;;10.30;8.50;;;;;;;8.84;100.00;100696.53;21070129;28;20260;-59
2021/10/13 16:00:19;;;;;;;6.40;5.67;;;;;;;8.67;100.00;100704.53;21069092;28;20233;-59
2021/10/13 16:10:21;;;;;;;5.53;5.03;;;;;;;8.69;100.00;100718.63;21065987;28;20229;-60
2021/10/13 16:20:25;;;;;;;5.73;5.23;;;;;;;8.57;100.00;100719.22;21066807;28;20716;-60
2021/10/13 16:30:28;;;;;;;6.60;5.63;;;;;;;8.26;100.00;100735.78;21065460;28;20717;-59
2021/10/13 16:40:31;;;;;;;8.67;7.77;;;;;;;8.09;100.00;100747.19;21066873;28;20645;-59
2021/10/13 16:50:34;;;;;;;8.10;7.37;;;;;;;8.15;100.00;100754.91;21064819;28;20231;-60
2021/10/13 17:00:38;;;;;;;8.40;7.60;;;;;;;8.29;100.00;100747.13;21047375;28;20255;-60
2021/10/13 17:10:41;;;;;;;7.07;6.37;;;;;;;8.38;100.00;100756.47;21064655;28;20651;-60
2021/10/13 17:20:45;;;;;;;9.57;8.30;;;;;;;8.10;100.00;100756.03;21066725;28;20338;-60
2021/10/13 17:30:47;;;;;;;12.90;11.63;;;;;;;7.76;100.00;100767.38;21069973;28;20316;-65
2021/10/13 17:40:51;;;;;;;10.43;9.33;;;;;;;7.62;100.00;100775.09;21068629;28;20596;-59
2021/10/13 17:50:54;;;;;;;11.57;9.43;;;;;;;7.67;100.00;100789.03;21061622;28;20283;-60
2021/10/13 18:01:11;;;;;;;11.50;10.30;;;;;;;7.64;100.00;100802.44;21018486;28;20231;-60
2021/10/13 18:21:38;;;;;;;13.10;11.23;;;;;;;6.47;100.00;100824.19;21157456;27;20393;-60
2021/10/13 18:31:50;;;;;;;14.70;12.33;;;;;;;6.00;100.00;100829.53;21186880;27;20763;-65
2021/10/13 18:41:54;;;;;;;16.50;13.13;;;;;;;5.72;100.00;100834.06;21174851;27;20233;-65
2021/10/13 18:51:57;;;;;;;17.63;14.97;;;;;;;5.52;100.00;100852.44;21139226;28;20221;-61
2021/10/13 19:02:01;;;;;;;21.67;15.43;;;;;;;5.26;100.00;100851.56;21139803;28;20316;-60
2021/10/13 19:12:06;;;;;;;15.50;12.63;;;;;;;4.89;100.00;100866.91;21138868;28;20644;-60
2021/10/13 19:32:07;;;;;;;18.53;13.77;;;;;;;4.25;100.00;100884.75;21075119;27;20573;-61
2021/10/13 19:42:10;;;;;;;32.00;23.37;;;;;;;4.11;100.00;100892.19;21049302;27;20227;-59
2021/10/13 19:52:14;;;;;;;22.97;17.20;;;;;;;3.94;100.00;100890.06;20993028;27;20218;-60
2021/10/13 20:12:16;;;;;;;26.73;20.17;;;;;;;3.79;100.00;100904.53;20953474;27;20676;-68
2021/10/13 23:21:11;;;;;;;21.27;17.33;;;;;;;3.84;100.00;100951.94;21073979;27;20572;-64
